Time;durP1;ratioP1;P1;durP2;ratioP2;P2;SDS_P1;SDS_P2;PMS_P1;PMS_P2;Temp;Humidity;BMP_temperature;BMP_pressure;BME280_temperature;BME280_humidity;BME280_pressure;Samples;Min_cycle;Max_cycle;Signal;HPM_P1;HPM_P2
2024/01/19 00:02:00;;;;;;;53.20;29.00;;;;;;;-5.32;100.00;140984.50;107102;1256;25372;-58
2024/01/19 00:04:46;;;;;;;49.20;28.10;;;;;;;-5.32;100.00;140984.72;106989;1263;25347;-57
2024/01/19 00:07:31;;;;;;;57.30;31.00;;;;;;;-5.30;100.00;140990.67;107093;1264;25369;-62
2024/01/19 00:10:17;;;;;;;53.40;29.90;;;;;;;-5.29;100.00;140991.91;107317;1259;22772;-59
2024/01/19 00:13:02;;;;;;;58.40;29.60;;;;;;;-5.29;100.00;140993.39;107494;1260;24184;-60
2024/01/19 00:15:48;;;;;;;53.50;30.00;;;;;;;-5.30;100.00;140990.66;107593;1260;25370;-60
2024/01/19 00:18:33;;;;;;;54.60;30.80;;;;;;;-5.26;100.00;140999.84;106953;1266;25494;-60
2024/01/19 00:21:19;;;;;;;66.90;34.10;;;;;;;-5.21;100.00;141011.45;107004;1268;25368;-62
2024/01/19 00:24:05;;;;;;;59.70;33.80;;;;;;;-5.18;100.00;141020.13;106913;1267;25366;-62
2024/01/19 00:26:51;;;;;;;58.80;34.10;;;;;;;-5.15;100.00;141027.03;106952;1267;25475;-62
2024/01/19 00:29:37;;;;;;;73.50;36.90;;;;;;;-5.14;100.00;141031.02;106940;1274;25347;-63
2024/01/19 00:32:22;;;;;;;64.50;34.10;;;;;;;-5.13;100.00;141031.75;106992;1272;25579;-62
2024/01/19 00:35:08;;;;;;;64.00;33.30;;;;;;;-5.12;100.00;141034.72;106916;1269;25334;-62
2024/01/19 00:37:56;;;;;;;59.50;32.70;;;;;;;-5.13;100.00;141032.00;106980;1256;25357;-61
2024/01/19 00:40:43;;;;;;;62.50;31.60;;;;;;;-5.13;100.00;141032.48;107076;1262;25481;-58
2024/01/19 00:43:30;;;;;;;61.70;32.40;;;;;;;-5.14;100.00;141030.00;107046;1266;25407;-61
2024/01/19 00:46:15;;;;;;;62.90;32.20;;;;;;;-5.17;100.00;141022.83;106995;1260;25402;-60
2024/01/19 00:49:01;;;;;;;69.10;33.30;;;;;;;-5.16;100.00;141023.83;107017;1264;25493;-60
2024/01/19 00:51:46;;;;;;;67.60;34.30;;;;;;;-5.14;100.00;141030.98;107027;1263;25807;-62
2024/01/19 00:54:32;;;;;;;66.30;34.00;;;;;;;-5.10;100.00;141038.67;106964;1263;25436;-61
2024/01/19 00:57:18;;;;;;;67.10;32.80;;;;;;;-5.09;100.00;141042.89;107038;1272;25363;-61
2024/01/19 01:00:04;;;;;;;64.40;33.00;;;;;;;-5.07;100.00;141047.58;106960;1264;25325;-60
2024/01/19 01:02:50;;;;;;;70.50;34.60;;;;;;;-5.09;100.00;141041.66;106970;1266;25328;-62
2024/01/19 01:05:36;;;;;;;67.40;34.00;;;;;;;-5.11;100.00;141037.20;106999;1266;25436;-63
2024/01/19 01:08:23;;;;;;;65.60;32.70;;;;;;;-5.11;100.00;141037.69;106988;1264;25341;-62
2024/01/19 01:11:09;;;;;;;71.50;33.80;;;;;;;-5.11;100.00;141038.17;106978;1263;25462;-59
2024/01/19 01:13:55;;;;;;;78.10;36.80;;;;;;;-5.08;100.00;141043.63;106959;1266;25432;-59
2024/01/19 01:16:41;;;;;;;79.80;37.00;;;;;;;-5.06;100.00;141048.81;106962;1267;25388;-63
2024/01/19 01:19:27;;;;;;;74.40;36.30;;;;;;;-5.06;100.00;141048.33;107013;1266;25350;-62
2024/01/19 01:22:13;;;;;;;63.00;31.90;;;;;;;-5.08;100.00;141045.59;107015;1266;25351;-62
2024/01/19 01:24:59;;;;;;;66.50;32.00;;;;;;;-5.15;100.00;141028.53;107004;1263;25340;-61
2024/01/19 01:27:45;;;;;;;58.70;29.90;;;;;;;-5.25;100.00;141002.05;107027;1263;25362;-64
2024/01/19 01:30:30;;;;;;;60.00;31.50;;;;;;;-5.30;100.00;140991.17;107011;1265;25369;-60
2024/01/19 01:33:16;;;;;;;65.10;30.30;;;;;;;-5.29;100.00;140993.13;107002;1263;25432;-61
2024/01/19 01:36:02;;;;;;;66.50;30.50;;;;;;;-5.31;100.00;140988.45;107007;1264;25334;-60
2024/01/19 01:38:49;;;;;;;66.20;30.40;;;;;;;-5.33;100.00;140982.78;107033;1267;25488;-61
2024/01/19 01:41:36;;;;;;;54.60;27.10;;;;;;;-5.35;100.00;140978.06;107118;1266;25496;-61
2024/01/19 01:44:22;;;;;;;60.60;29.80;;;;;;;-5.38;100.00;140971.84;106997;1263;25334;-59
2024/01/19 01:47:08;;;;;;;58.40;30.30;;;;;;;-5.36;100.00;140974.84;106989;1265;25375;-60
2024/01/19 01:49:54;;;;;;;63.80;30.20;;;;;;;-5.33;100.00;140983.25;107084;1265;25577;-63
2024/01/19 01:52:40;;;;;;;70.90;31.80;;;;;;;-5.32;100.00;140986.72;107046;1272;25348;-60
2024/01/19 01:55:26;;;;;;;65.20;30.40;;;;;;;-5.30;100.00;140989.94;106906;1267;25497;-70
2024/01/19 01:58:13;;;;;;;64.00;30.70;;;;;;;-5.29;100.00;140993.16;107059;1263;25414;-60
2024/01/19 02:00:59;;;;;;;58.50;30.50;;;;;;;-5.27;100.00;140998.59;107276;1253;25548;-62
2024/01/19 02:03:47;;;;;;;61.40;30.40;;;;;;;-5.22;100.00;141011.45;106969;1254;25409;-63
2024/01/19 02:06:33;;;;;;;57.10;29.50;;;;;;;-5.17;100.00;141022.34;107081;1267;25410;-61
2024/01/19 02:09:19;;;;;;;62.40;29.50;;;;;;;-5.14;100.00;141029.78;106923;1266;25481;-60
2024/01/19 02:12:06;;;;;;;54.30;27.60;;;;;;;-5.14;100.00;141029.25;107055;1256;25443;-62
2024/01/19 02:14:52;;;;;;;48.50;27.70;;;;;;;-5.14;100.00;141030.75;107083;1260;22654;-61
2024/01/19 02:17:37;;;;;;;42.80;24.30;;;;;;;-5.14;100.00;141029.78;107123;1253;25341;-64
2024/01/19 02:20:24;;;;;;;43.80;23.20;;;;;;;-5.15;100.00;141027.03;107062;1256;26557;-62
2024/01/19 02:23:13;;;;;;;40.90;22.90;;;;;;;-5.17;100.00;141022.34;106932;1256;25434;-64
2024/01/19 02:25:58;;;;;;;38.00;22.40;;;;;;;-5.16;100.00;141024.58;106973;1256;25390;-62
2024/01/19 02:28:44;;;;;;;43.80;21.80;;;;;;;-5.18;100.00;141018.89;107140;1256;25399;-63
2024/01/19 02:31:30;;;;;;;39.50;22.00;;;;;;;-5.17;100.00;141023.58;107003;1253;25409;-60
2024/01/19 02:34:17;;;;;;;38.60;21.30;;;;;;;-5.17;100.00;141022.34;107152;1267;25335;-61
2024/01/19 02:37:02;;;;;;;40.30;20.70;;;;;;;-5.20;100.00;141014.92;107083;1263;23150;-62
2024/01/19 02:39:48;;;;;;;35.50;20.10;;;;;;;-5.26;100.00;140999.58;107286;1262;25343;-59
2024/01/19 02:42:34;;;;;;;33.90;19.30;;;;;;;-5.33;100.00;140984.23;107357;1262;22644;-60
2024/01/19 02:45:19;;;;;;;30.50;18.30;;;;;;;-5.39;100.00;140968.42;107233;1257;25344;-63
2024/01/19 02:48:05;;;;;;;28.40;15.70;;;;;;;-5.47;100.00;140951.09;107250;1265;25360;-63
2024/01/19 02:50:51;;;;;;;32.60;18.30;;;;;;;-5.62;100.00;140914.00;107175;1264;25522;-61
2024/01/19 02:53:37;;;;;;;29.40;16.50;;;;;;;-5.76;100.00;140878.16;107179;1267;25359;-61
2024/01/19 02:56:22;;;;;;;27.70;16.30;;;;;;;-5.87;100.00;140852.92;107145;1266;23246;-61
2024/01/19 02:59:08;;;;;;;26.30;16.10;;;;;;;-5.92;100.00;140841.55;107143;1268;25484;-60
2024/01/19 03:01:54;;;;;;;24.30;13.90;;;;;;;-5.93;100.00;140839.59;107263;1266;25558;-59
2024/01/19 03:04:39;;;;;;;24.70;14.20;;;;;;;-5.91;100.00;140843.53;107075;1265;25408;-61
2024/01/19 03:07:25;;;;;;;25.50;14.30;;;;;;;-5.87;100.00;140852.17;107162;1270;25406;-62
2024/01/19 03:10:11;;;;;;;21.20;12.30;;;;;;;-5.87;100.00;140852.67;107053;1265;24289;-61
2024/01/19 03:12:57;;;;;;;25.70;14.20;;;;;;;-5.90;100.00;140846.75;107169;1253;25401;-63
2024/01/19 03:15:42;;;;;;;22.90;13.70;;;;;;;-5.90;100.00;140847.48;107116;1267;23254;-60
2024/01/19 03:18:28;;;;;;;24.20;14.40;;;;;;;-5.89;100.00;140849.45;107095;1257;25331;-57
2024/01/19 03:21:15;;;;;;;27.40;15.80;;;;;;;-5.89;100.00;140849.70;107100;1256;22522;-64
2024/01/19 03:24:02;;;;;;;25.70;15.50;;;;;;;-5.89;100.00;140849.70;107165;1265;25344;-61
2024/01/19 03:26:47;;;;;;;24.20;13.70;;;;;;;-5.93;100.00;140839.11;107082;1263;25356;-62
2024/01/19 03:29:33;;;;;;;23.90;14.40;;;;;;;-5.96;100.00;140832.45;107200;1266;23821;-61
2024/01/19 03:32:19;;;;;;;22.60;13.90;;;;;;;-5.95;100.00;140835.17;107092;1256;25444;-58
2024/01/19 03:35:04;;;;;;;22.60;13.50;;;;;;;-5.97;100.00;140829.97;107100;1267;25424;-63
2024/01/19 03:37:50;;;;;;;23.30;14.30;;;;;;;-6.02;100.00;140817.14;107136;1266;25418;-61
2024/01/19 03:40:35;;;;;;;25.20;14.80;;;;;;;-6.06;100.00;140807.97;107181;1256;25423;-63
2024/01/19 03:43:21;;;;;;;25.60;15.60;;;;;;;-6.08;100.00;140802.55;107109;1266;25490;-60
2024/01/19 03:46:07;;;;;;;20.60;13.20;;;;;;;-6.11;100.00;140795.13;107124;1256;25511;-64
2024/01/19 03:48:53;;;;;;;20.70;12.10;;;;;;;-6.14;100.00;140787.20;107099;1254;25344;-61
2024/01/19 03:51:56;;;;;;;22.20;13.30;;;;;;;-6.18;100.00;140777.58;107104;1266;25372;-56
2024/01/19 03:54:42;;;;;;;22.90;13.90;;;;;;;-6.27;100.00;140756.83;107040;1254;25375;-63
2024/01/19 03:57:28;;;;;;;22.30;13.50;;;;;;;-6.30;100.00;140748.91;107087;1263;25376;-59
2024/01/19 04:00:14;;;;;;;21.70;12.90;;;;;;;-6.37;100.00;140733.34;107058;1252;25459;-63
2024/01/19 04:02:59;;;;;;;17.90;11.70;;;;;;;-6.42;100.00;140721.45;107087;1266;25504;-60
2024/01/19 04:05:46;;;;;;;20.60;12.50;;;;;;;-6.49;100.00;140703.20;107104;1265;22537;-63
2024/01/19 04:08:32;;;;;;;19.60;11.00;;;;;;;-6.53;100.00;140694.55;107041;1271;25347;-60
2024/01/19 04:11:18;;;;;;;18.80;11.30;;;;;;;-6.54;100.00;140692.31;107176;1265;25423;-59
2024/01/19 04:14:04;;;;;;;20.50;11.80;;;;;;;-6.55;100.00;140688.61;107184;1266;25344;-61
2024/01/19 04:16:50;;;;;;;15.60;9.00;;;;;;;-6.56;100.00;140686.41;107054;1266;25347;-60
2024/01/19 04:19:39;;;;;;;17.20;10.90;;;;;;;-6.57;100.00;140684.16;107196;1266;25342;-59
2024/01/19 04:22:28;;;;;;;14.60;8.70;;;;;;;-6.61;100.00;140675.28;107260;1266;25340;-60
2024/01/19 04:25:13;;;;;;;12.70;8.30;;;;;;;-6.64;100.00;140666.38;107398;1267;25481;-60
2024/01/19 04:27:59;;;;;;;14.40;8.70;;;;;;;-6.64;100.00;140666.39;107223;1266;23159;-60
2024/01/19 04:30:45;;;;;;;13.30;8.30;;;;;;;-6.67;100.00;140659.70;107137;1265;25344;-60
2024/01/19 04:33:31;;;;;;;12.20;7.10;;;;;;;-6.70;100.00;140652.53;107154;1266;25396;-60
2024/01/19 04:36:17;;;;;;;15.20;9.90;;;;;;;-6.72;100.00;140647.11;107067;1266;25366;-63
2024/01/19 04:39:04;;;;;;;9.80;6.70;;;;;;;-6.76;100.00;140638.97;107117;1265;25366;-61
2024/01/19 04:41:50;;;;;;;11.60;7.10;;;;;;;-6.80;100.00;140628.09;107116;1265;25382;-62
2024/01/19 04:44:36;;;;;;;12.70;7.90;;;;;;;-6.84;100.00;140618.45;107093;1270;25344;-61
2024/01/19 04:47:21;;;;;;;11.30;7.60;;;;;;;-6.88;100.00;140608.83;107215;1266;25353;-63
2024/01/19 04:50:08;;;;;;;12.60;8.10;;;;;;;-6.91;100.00;140601.67;107183;1267;25344;-59
2024/01/19 04:52:54;;;;;;;13.30;9.00;;;;;;;-6.92;100.00;140599.20;107159;1256;25344;-61
2024/01/19 04:55:40;;;;;;;14.50;9.60;;;;;;;-6.98;100.00;140584.13;107078;1267;25411;-63
2024/01/19 04:58:26;;;;;;;15.30;9.30;;;;;;;-7.00;100.00;140581.41;107142;1266;25360;-61
2024/01/19 05:01:11;;;;;;;17.10;11.50;;;;;;;-7.01;100.00;140579.19;107071;1261;25388;-61
2024/01/19 05:03:57;;;;;;;14.00;9.30;;;;;;;-7.01;100.00;140578.45;107127;1254;22608;-65
2024/01/19 05:06:44;;;;;;;14.70;8.90;;;;;;;-7.04;100.00;140571.03;107007;1256;25484;-62
2024/01/19 05:09:29;;;;;;;14.00;8.20;;;;;;;-7.07;100.00;140563.59;107173;1260;25427;-61
2024/01/19 05:12:15;;;;;;;12.20;7.60;;;;;;;-7.12;100.00;140551.28;107217;1253;25375;-60
2024/01/19 05:15:01;;;;;;;11.40;7.90;;;;;;;-7.18;100.00;140536.22;107116;1266;22579;-61
2024/01/19 05:17:47;;;;;;;14.10;8.00;;;;;;;-7.23;100.00;140526.09;107096;1263;23893;-63
2024/01/19 05:20:33;;;;;;;11.20;7.30;;;;;;;-7.24;100.00;140523.13;107163;1256;25447;-59
2024/01/19 05:23:19;;;;;;;15.10;10.20;;;;;;;-7.25;100.00;140520.66;107111;1266;25449;-60
2024/01/19 05:26:05;;;;;;;12.70;7.90;;;;;;;-7.25;100.00;140519.91;107055;1254;25366;-62
2024/01/19 05:28:51;;;;;;;11.10;7.30;;;;;;;-7.31;100.00;140505.84;107088;1265;25369;-62
2024/01/19 05:31:37;;;;;;;13.60;9.30;;;;;;;-7.38;100.00;140489.08;107146;1266;25334;-61
2024/01/19 05:34:22;;;;;;;16.70;9.70;;;;;;;-7.44;100.00;140474.23;107078;1266;60819;-62
2024/01/19 05:37:08;;;;;;;13.90;8.90;;;;;;;-7.48;100.00;140464.63;107100;1263;25482;-62
2024/01/19 05:39:53;;;;;;;10.80;7.40;;;;;;;-7.55;100.00;140448.09;107123;1261;22525;-64
2024/01/19 05:42:40;;;;;;;9.70;7.20;;;;;;;-7.60;100.00;140435.75;107061;1257;25372;-64
2024/01/19 05:45:26;;;;;;;12.30;8.50;;;;;;;-7.65;100.00;140423.17;107015;1266;25350;-62
2024/01/19 05:48:12;;;;;;;15.20;9.20;;;;;;;-7.68;100.00;140416.00;107105;1267;25455;-62
2024/01/19 05:50:58;;;;;;;12.70;8.20;;;;;;;-7.68;100.00;140417.75;107152;1260;25410;-62
2024/01/19 05:53:44;;;;;;;11.70;8.60;;;;;;;-7.70;100.00;140412.78;107079;1272;22538;-60
2024/01/19 05:56:30;;;;;;;14.80;9.20;;;;;;;-7.72;100.00;140405.88;107083;1265;25353;-63
2024/01/19 05:59:15;;;;;;;14.00;8.20;;;;;;;-7.74;100.00;140401.42;107136;1267;25344;-61
2024/01/19 06:02:01;;;;;;;13.40;9.00;;;;;;;-7.77;100.00;140396.03;107176;1267;25494;-62
2024/01/19 06:04:47;;;;;;;14.90;9.80;;;;;;;-7.76;100.00;140397.97;107019;1261;25485;-60
2024/01/19 06:07:34;;;;;;;11.30;7.30;;;;;;;-7.73;100.00;140404.41;107086;1258;23234;-60
2024/01/19 06:10:19;;;;;;;15.70;9.30;;;;;;;-7.76;100.00;140396.28;107155;1256;25368;-65
2024/01/19 06:13:05;;;;;;;16.80;9.50;;;;;;;-7.79;100.00;140389.83;107075;1267;25436;-61
2024/01/19 06:15:51;;;;;;;14.50;9.20;;;;;;;-7.81;100.00;140384.92;107087;1257;25347;-60
2024/01/19 06:18:37;;;;;;;16.00;10.10;;;;;;;-7.83;100.00;140379.25;107195;1260;25583;-59
2024/01/19 06:21:23;;;;;;;17.60;10.80;;;;;;;-7.87;100.00;140371.59;107152;1269;25365;-62
2024/01/19 06:24:09;;;;;;;17.30;10.00;;;;;;;-7.89;100.00;140366.89;107100;1256;25373;-63
2024/01/19 06:26:56;;;;;;;21.80;13.20;;;;;;;-7.93;100.00;140357.28;107135;1257;25343;-59
2024/01/19 06:29:42;;;;;;;22.00;12.80;;;;;;;-7.98;100.00;140342.70;107115;1263;25375;-59
2024/01/19 06:32:29;;;;;;;22.00;13.60;;;;;;;-8.06;100.00;140325.42;107130;1266;25369;-63
2024/01/19 06:35:15;;;;;;;20.00;11.70;;;;;;;-8.08;100.00;140321.23;107044;1254;25411;-64
2024/01/19 06:38:01;;;;;;;21.40;11.90;;;;;;;-8.07;100.00;140323.95;107120;1265;25491;-64
2024/01/19 06:40:46;;;;;;;22.00;13.00;;;;;;;-8.03;100.00;140330.13;107113;1266;23244;-61
2024/01/19 06:43:32;;;;;;;20.00;12.00;;;;;;;-8.05;100.00;140326.17;107141;1256;25378;-61
2024/01/19 06:46:18;;;;;;;18.60;11.00;;;;;;;-8.07;100.00;140322.47;106979;1266;25421;-63
2024/01/19 06:49:03;;;;;;;15.60;9.60;;;;;;;-8.07;100.00;140322.22;107065;1254;25344;-61
2024/01/19 06:51:50;;;;;;;21.80;13.00;;;;;;;-8.04;100.00;140329.39;107109;1261;25421;-59
2024/01/19 06:54:35;;;;;;;21.70;12.00;;;;;;;-8.05;100.00;140326.41;106944;1264;22611;-61
2024/01/19 06:57:21;;;;;;;21.20;12.50;;;;;;;-8.06;100.00;140324.72;107046;1268;25408;-62
2024/01/19 07:00:07;;;;;;;23.40;11.30;;;;;;;-8.09;100.00;140319.03;107168;1265;25363;-61
2024/01/19 07:02:54;;;;;;;21.60;13.10;;;;;;;-8.09;100.00;140317.55;107123;1265;23183;-62
2024/01/19 07:05:42;;;;;;;20.90;11.80;;;;;;;-8.07;100.00;140322.73;107077;1270;25325;-61
2024/01/19 07:08:28;;;;;;;22.00;12.60;;;;;;;-8.03;100.00;140331.09;107049;1257;25436;-62
2024/01/19 07:11:14;;;;;;;24.70;14.00;;;;;;;-8.00;100.00;140337.28;107142;1256;25404;-62
2024/01/19 07:13:59;;;;;;;20.70;12.10;;;;;;;-7.97;100.00;140346.41;107023;1264;25372;-60
2024/01/19 07:16:45;;;;;;;21.00;11.60;;;;;;;-7.97;100.00;140347.13;107023;1257;25417;-63
2024/01/19 07:19:31;;;;;;;23.50;12.80;;;;;;;-7.99;100.00;140340.72;107175;1259;25421;-60
2024/01/19 07:22:16;;;;;;;20.90;12.20;;;;;;;-8.02;100.00;140333.83;107012;1266;25335;-62
2024/01/19 07:25:03;;;;;;;23.80;15.10;;;;;;;-8.10;100.00;140315.33;106991;1275;25351;-63
2024/01/19 07:27:49;;;;;;;23.40;13.20;;;;;;;-8.13;100.00;140307.69;107008;1259;25372;-64
2024/01/19 07:30:38;;;;;;;24.20;13.60;;;;;;;-8.15;100.00;140302.48;107005;1265;25381;-61
2024/01/19 07:33:25;;;;;;;24.60;13.80;;;;;;;-8.23;100.00;140283.00;106969;1275;25493;-64
2024/01/19 07:36:19;;;;;;;28.50;15.60;;;;;;;-8.34;100.00;140257.09;107186;1258;25353;-62
2024/01/19 07:39:12;;;;;;;25.50;13.70;;;;;;;-8.46;100.00;140227.33;107193;1259;25517;-62
2024/01/19 07:41:57;;;;;;;28.10;15.60;;;;;;;-8.56;100.00;140205.14;107052;1262;25375;-62
2024/01/19 07:44:43;;;;;;;25.10;14.00;;;;;;;-8.60;100.00;140194.03;106955;1256;25402;-60
2024/01/19 07:47:34;;;;;;;21.20;12.80;;;;;;;-8.67;100.00;140176.77;106958;1256;25347;-61
2024/01/19 07:50:20;;;;;;;22.40;13.10;;;;;;;-8.67;100.00;140176.28;106956;1265;25372;-62
2024/01/19 07:53:06;;;;;;;22.80;12.50;;;;;;;-8.65;100.00;140183.44;106955;1259;25395;-62
2024/01/19 07:55:52;;;;;;;22.50;12.10;;;;;;;-8.60;100.00;140195.02;106910;1259;25418;-61
2024/01/19 07:58:38;;;;;;;25.70;14.60;;;;;;;-8.55;100.00;140207.34;107086;1272;22990;-60
2024/01/19 08:01:24;;;;;;;20.90;12.00;;;;;;;-8.54;100.00;140209.09;107009;1258;25493;-61
2024/01/19 08:04:10;;;;;;;20.20;13.00;;;;;;;-8.58;100.00;140200.45;107106;1260;23482;-61
2024/01/19 08:06:56;;;;;;;23.40;13.90;;;;;;;-8.61;100.00;140191.30;107692;1263;25417;-62
2024/01/19 08:09:42;;;;;;;22.90;12.90;;;;;;;-8.66;100.00;140181.45;108263;1260;22622;-61
2024/01/19 08:12:34;;;;;;;24.10;13.80;;;;;;;-8.64;100.00;140184.67;107619;1270;25406;-62
2024/01/19 08:15:20;;;;;;;22.70;13.50;;;;;;;-8.52;100.00;140213.78;107462;1273;26702;-62
2024/01/19 08:18:06;;;;;;;20.90;13.00;;;;;;;-8.37;100.00;140249.47;107598;1267;25450;-61
2024/01/19 08:20:52;;;;;;;25.80;13.50;;;;;;;-8.27;100.00;140272.91;107390;1263;25398;-60
2024/01/19 08:23:38;;;;;;;29.60;17.90;;;;;;;-8.22;100.00;140286.22;107521;1274;25230;-62
2024/01/19 08:26:24;;;;;;;23.10;13.00;;;;;;;-8.09;100.00;140318.30;107140;1267;25802;-62
2024/01/19 08:29:10;;;;;;;22.80;12.10;;;;;;;-8.01;100.00;140336.05;107167;1275;25366;-63
2024/01/19 08:31:56;;;;;;;20.30;11.90;;;;;;;-7.93;100.00;140354.55;107454;1275;22822;-62
2024/01/19 08:34:43;;;;;;;20.70;12.30;;;;;;;-7.87;100.00;140370.59;107123;1274;25347;-62
2024/01/19 08:37:28;;;;;;;23.60;13.00;;;;;;;-7.70;100.00;140410.31;107246;1263;25452;-61
2024/01/19 08:40:14;;;;;;;22.80;12.80;;;;;;;-7.46;100.00;140469.80;107068;1260;25493;-61
2024/01/19 08:43:00;;;;;;;25.30;13.90;;;;;;;-7.21;100.00;140530.05;107361;1261;26496;-61
2024/01/19 08:45:49;;;;;;;24.60;14.50;;;;;;;-6.74;100.00;140642.67;107280;1274;25493;-62
2024/01/19 08:48:35;;;;;;;26.10;14.20;;;;;;;-6.27;100.00;140755.09;107193;1274;25439;-60
2024/01/19 08:51:21;;;;;;;21.60;13.80;;;;;;;-6.06;100.00;140807.00;107185;1267;25362;-61
2024/01/19 08:54:07;;;;;;;27.70;16.70;;;;;;;-6.06;100.00;140806.25;107248;1269;26515;-61
2024/01/19 08:56:54;;;;;;;28.20;14.50;;;;;;;-6.20;100.00;140774.38;107219;1260;25366;-62
2024/01/19 08:59:45;;;;;;;28.50;15.80;;;;;;;-6.28;100.00;140754.59;107132;1268;22772;-61
2024/01/19 09:02:31;;;;;;;27.20;14.80;;;;;;;-6.43;100.00;140718.52;107508;1275;23392;-62
2024/01/19 09:05:17;;;;;;;24.90;14.90;;;;;;;-6.58;100.00;140680.97;106961;1266;25376;-61
2024/01/19 09:08:03;;;;;;;23.30;13.50;;;;;;;-6.75;100.00;140641.19;107412;1263;26499;-60
2024/01/19 09:10:49;;;;;;;25.50;14.30;;;;;;;-6.97;100.00;140587.59;107442;1275;24262;-64
2024/01/19 09:13:37;;;;;;;25.40;15.30;;;;;;;-7.07;100.00;140564.13;107443;1261;23186;-62
2024/01/19 09:16:22;;;;;;;23.10;14.20;;;;;;;-7.18;100.00;140536.47;107438;1263;25340;-62
2024/01/19 09:19:08;;;;;;;24.20;15.60;;;;;;;-7.26;100.00;140517.45;108209;1260;22603;-61
2024/01/19 09:21:53;;;;;;;25.20;14.50;;;;;;;-7.33;100.00;140501.41;107677;1260;22530;-61
2024/01/19 09:24:39;;;;;;;29.10;17.30;;;;;;;-7.36;100.00;140492.52;107397;1263;25362;-61
2024/01/19 09:27:27;;;;;;;25.70;15.40;;;;;;;-7.37;100.00;140491.53;107385;1259;25419;-61
2024/01/19 09:30:13;;;;;;;25.30;14.60;;;;;;;-7.52;100.00;140455.00;107901;1263;25359;-61
2024/01/19 09:32:58;;;;;;;22.60;15.10;;;;;;;-7.62;100.00;140429.34;107253;1254;22542;-64
2024/01/19 09:35:44;;;;;;;28.80;16.60;;;;;;;-7.68;100.00;140417.00;107696;1265;22616;-63
2024/01/19 09:38:30;;;;;;;27.20;17.70;;;;;;;-7.64;100.00;140426.13;107210;1260;25571;-63
2024/01/19 09:41:37;;;;;;;26.10;15.90;;;;;;;-7.56;100.00;140444.41;107493;1272;26633;-64
2024/01/19 09:44:26;;;;;;;29.10;16.30;;;;;;;-7.55;100.00;140447.08;107309;1256;23905;-64
2024/01/19 09:47:22;;;;;;;24.10;13.40;;;;;;;-7.60;100.00;140435.25;107560;1261;23393;-63
2024/01/19 09:50:10;;;;;;;24.00;13.40;;;;;;;-7.62;100.00;140431.30;107483;1265;25392;-64
2024/01/19 09:53:00;;;;;;;25.70;15.30;;;;;;;-7.70;100.00;140411.06;107284;1270;23193;-63
2024/01/19 09:55:47;;;;;;;24.70;13.10;;;;;;;-7.75;100.00;140398.97;107315;1270;23878;-63
2024/01/19 09:58:32;;;;;;;22.30;13.90;;;;;;;-7.83;100.00;140379.73;107169;1266;25457;-63
2024/01/19 10:01:18;;;;;;;25.50;13.90;;;;;;;-7.87;100.00;140370.84;107675;1266;25380;-60
2024/01/19 10:04:06;;;;;;;21.10;12.40;;;;;;;-7.90;100.00;140364.16;107333;1260;25376;-60
2024/01/19 10:06:53;;;;;;;23.30;10.70;;;;;;;-7.89;100.00;140367.14;107780;1259;22869;-62
2024/01/19 10:09:40;;;;;;;20.20;11.30;;;;;;;-7.88;100.00;140367.63;107340;1263;25363;-62
2024/01/19 10:12:27;;;;;;;23.00;12.50;;;;;;;-7.83;100.00;140379.22;107487;1259;23186;-62
2024/01/19 10:15:15;;;;;;;19.20;11.30;;;;;;;-7.69;100.00;140415.02;107401;1256;23841;-60
2024/01/19 10:18:03;;;;;;;19.90;10.60;;;;;;;-7.54;100.00;140449.06;108472;1254;25491;-63
2024/01/19 10:20:53;;;;;;;23.60;12.80;;;;;;;-7.59;100.00;140437.23;107913;1269;25494;-62
2024/01/19 10:23:41;;;;;;;18.60;11.20;;;;;;;-7.59;100.00;140436.75;108593;1267;23176;-61
2024/01/19 10:26:28;;;;;;;19.10;10.10;;;;;;;-7.53;100.00;140451.30;107974;1259;25363;-62
2024/01/19 10:29:17;;;;;;;18.70;10.70;;;;;;;-7.52;100.00;140454.25;107551;1257;25567;-62
2024/01/19 10:32:05;;;;;;;17.20;9.80;;;;;;;-7.59;100.00;140436.25;107766;1259;22567;-63
2024/01/19 10:35:04;;;;;;;21.70;11.90;;;;;;;-7.67;100.00;140418.97;107086;1262;25497;-61
2024/01/19 10:38:03;;;;;;;21.40;10.60;;;;;;;-7.74;100.00;140402.67;107133;1260;25356;-61
2024/01/19 10:40:49;;;;;;;18.80;10.30;;;;;;;-7.79;100.00;140389.84;107118;1259;25475;-61
2024/01/19 10:43:35;;;;;;;20.60;11.00;;;;;;;-7.70;100.00;140411.56;107389;1272;22475;-62
2024/01/19 10:46:26;;;;;;;17.90;10.30;;;;;;;-7.60;100.00;140435.25;107712;1260;22638;-62
2024/01/19 10:49:13;;;;;;;16.70;9.20;;;;;;;-7.59;100.00;140438.22;107159;1259;23224;-63
2024/01/19 10:51:59;;;;;;;18.70;10.80;;;;;;;-7.54;100.00;140450.30;107389;1259;25384;-60
2024/01/19 10:54:48;;;;;;;16.80;10.40;;;;;;;-7.47;100.00;140466.34;107355;1256;24912;-62
2024/01/19 10:57:34;;;;;;;17.70;10.00;;;;;;;-7.36;100.00;140493.75;107615;1259;25382;-62
2024/01/19 11:00:24;;;;;;;20.00;10.50;;;;;;;-7.37;100.00;140490.05;107652;1256;25331;-62
2024/01/19 11:03:10;;;;;;;18.80;9.40;;;;;;;-7.45;100.00;140471.03;107153;1256;25344;-63
2024/01/19 11:05:59;;;;;;;16.80;8.90;;;;;;;-7.46;100.00;140469.06;107903;1259;22540;-63
2024/01/19 11:08:44;;;;;;;22.40;10.00;;;;;;;-7.46;100.00;140469.08;107325;1260;22795;-61
2024/01/19 11:11:31;;;;;;;18.00;10.10;;;;;;;-7.46;100.00;140470.06;107744;1263;25452;-61
2024/01/19 11:14:20;;;;;;;16.90;10.30;;;;;;;-7.44;100.00;140474.00;107287;1256;25337;-62
2024/01/19 11:17:06;;;;;;;20.70;10.10;;;;;;;-7.44;100.00;140475.00;107572;1256;22539;-58
2024/01/19 11:19:52;;;;;;;18.90;9.50;;;;;;;-7.47;100.00;140466.34;108954;1258;22534;-63
2024/01/19 11:22:37;;;;;;;19.30;10.10;;;;;;;-7.56;100.00;140445.36;107298;1263;25474;-63
2024/01/19 11:26:13;;;;;;;19.30;9.60;;;;;;;-7.58;100.00;140439.19;108149;1255;22529;-61
2024/01/19 11:29:02;;;;;;;14.50;8.10;;;;;;;-7.67;100.00;140418.23;108020;1259;22606;-63
2024/01/19 11:31:50;;;;;;;17.90;9.40;;;;;;;-7.69;100.00;140415.02;108417;1257;23455;-58
2024/01/19 11:34:41;;;;;;;17.30;9.50;;;;;;;-7.66;100.00;140420.92;106961;1263;25412;-62
2024/01/19 11:37:48;;;;;;;15.00;7.90;;;;;;;-7.64;100.00;140425.63;107127;1256;23599;-62
2024/01/19 11:40:35;;;;;;;14.30;8.00;;;;;;;-7.70;100.00;140411.08;107184;1272;25372;-63
2024/01/19 11:43:39;;;;;;;13.50;7.90;;;;;;;-7.68;100.00;140417.72;107401;1275;22888;-62
2024/01/19 11:46:45;;;;;;;13.70;6.80;;;;;;;-7.66;100.00;140421.17;107540;1259;25334;-62
2024/01/19 11:49:35;;;;;;;16.90;7.10;;;;;;;-7.71;100.00;140410.09;107289;1259;25337;-59
2024/01/19 11:52:20;;;;;;;13.20;6.10;;;;;;;-7.67;98.18;140418.72;106939;1266;25494;-60
2024/01/19 11:55:28;;;;;;;17.20;8.10;;;;;;;-7.68;88.10;140417.97;106987;1260;25346;-61
2024/01/19 11:58:35;;;;;;;17.10;6.90;;;;;;;-7.63;88.05;140428.09;106972;1257;25350;-61
2024/01/19 12:01:22;;;;;;;16.10;9.20;;;;;;;-7.64;86.71;140424.91;107053;1259;25364;-64
2024/01/19 12:04:08;;;;;;;12.60;6.60;;;;;;;-7.72;86.84;140407.84;107030;1275;25440;-60
2024/01/19 12:07:19;;;;;;;14.90;7.60;;;;;;;-7.73;87.18;140405.88;106978;1258;25395;-63
2024/01/19 12:10:12;;;;;;;18.30;7.30;;;;;;;-7.77;87.66;140394.78;107015;1256;25564;-61
2024/01/19 12:12:58;;;;;;;14.60;7.90;;;;;;;-7.80;87.80;140386.91;107009;1275;25366;-60
2024/01/19 12:15:45;;;;;;;15.80;8.50;;;;;;;-7.78;88.44;140391.56;107015;1275;25380;-62
2024/01/19 12:18:33;;;;;;;14.40;7.10;;;;;;;-7.80;88.24;140388.59;107002;1275;25420;-63
2024/01/19 12:21:19;;;;;;;13.40;7.10;;;;;;;-7.78;88.48;140392.55;107007;1266;25372;-63
2024/01/19 12:24:06;;;;;;;15.00;7.20;;;;;;;-7.82;88.16;140383.19;106985;1275;26507;-62
2024/01/19 12:26:53;;;;;;;14.40;8.00;;;;;;;-7.85;87.92;140375.28;107112;1265;22735;-63